createdAt,value
2022-10-15T00:01:49.330Z,14.20
2022-10-15T00:04:17.454Z,14.30
2022-10-15T00:06:45.391Z,14.30
2022-10-15T00:09:14.743Z,14.30
2022-10-15T00:11:42.799Z,14.20
2022-10-15T00:14:10.727Z,14.20
2022-10-15T00:16:38.791Z,14.20
2022-10-15T00:19:06.825Z,14.30
2022-10-15T00:21:34.845Z,14.20
2022-10-15T00:24:02.849Z,14.30
2022-10-15T00:26:32.435Z,14.30
2022-10-15T00:29:02.030Z,14.30
2022-10-15T00:31:32.424Z,14.30
2022-10-15T00:34:02.541Z,14.20
2022-10-15T00:36:32.203Z,14.20
2022-10-15T00:39:01.295Z,14.10
2022-10-15T00:41:32.656Z,14.10
2022-10-15T00:44:02.085Z,14.10
2022-10-15T00:46:34.521Z,14.20
2022-10-15T00:49:06.957Z,14.10
2022-10-15T00:51:41.131Z,14.10
2022-10-15T00:54:10.943Z,14.10
2022-10-15T00:56:42.644Z,14.00
2022-10-15T00:59:12.525Z,13.90
2022-10-15T01:01:40.716Z,13.80
2022-10-15T01:04:09.690Z,13.80
2022-10-15T01:06:38.257Z,13.70
2022-10-15T01:09:07.292Z,13.60
2022-10-15T01:11:43.290Z,13.60
2022-10-15T01:14:23.138Z,13.60
2022-10-15T01:16:56.006Z,13.60
2022-10-15T01:19:43.023Z,13.70
2022-10-15T01:22:15.193Z,13.70
2022-10-15T01:24:50.335Z,13.70
2022-10-15T01:27:32.076Z,13.70
2022-10-15T01:30:25.270Z,13.50
2022-10-15T01:33:04.493Z,13.50
2022-10-15T01:35:39.762Z,13.60
2022-10-15T01:38:16.827Z,13.50
2022-10-15T01:40:49.963Z,13.60
2022-10-15T01:43:23.714Z,13.60
2022-10-15T01:45:54.776Z,13.60
2022-10-15T01:48:27.777Z,13.60
2022-10-15T01:50:59.265Z,13.60
2022-10-15T01:53:29.497Z,13.60
2022-10-15T01:56:01.169Z,13.70
2022-10-15T01:58:30.870Z,13.60
2022-10-15T02:00:59.962Z,13.70
2022-10-15T02:03:29.585Z,13.70
2022-10-15T02:06:03.877Z,13.70
2022-10-15T02:08:40.281Z,13.60
2022-10-15T02:11:12.641Z,13.70
2022-10-15T02:13:51.524Z,13.70
2022-10-15T02:16:25.261Z,13.70
2022-10-15T02:19:01.838Z,13.70
2022-10-15T02:21:33.213Z,13.70
2022-10-15T02:24:10.231Z,13.70
2022-10-15T02:26:40.451Z,13.70
2022-10-15T02:29:11.996Z,13.70
2022-10-15T02:31:42.749Z,13.70
2022-10-15T02:34:15.578Z,13.70
2022-10-15T02:36:45.587Z,13.60
2022-10-15T02:39:16.302Z,13.70
2022-10-15T02:41:45.221Z,13.70
2022-10-15T02:44:13.377Z,13.70
2022-10-15T02:46:41.425Z,13.70
2022-10-15T02:49:10.898Z,13.60
2022-10-15T02:51:39.041Z,13.60
2022-10-15T02:54:08.361Z,13.70
2022-10-15T02:56:39.121Z,13.60
2022-10-15T02:59:07.569Z,13.70
2022-10-15T03:01:36.582Z,13.70
2022-10-15T03:04:04.677Z,13.60
2022-10-15T03:06:34.132Z,13.60
2022-10-15T03:09:02.172Z,13.70
2022-10-15T03:11:30.132Z,13.70
2022-10-15T03:13:58.173Z,13.70
2022-10-15T03:16:26.219Z,13.70
2022-10-15T03:18:54.342Z,13.70
2022-10-15T03:21:22.533Z,13.80
2022-10-15T03:23:52.086Z,13.70
2022-10-15T03:26:20.179Z,13.80
2022-10-15T03:28:48.321Z,13.80
2022-10-15T03:31:16.337Z,13.90
2022-10-15T03:33:44.375Z,13.90
2022-10-15T03:36:12.422Z,14.00
2022-10-15T03:38:40.486Z,13.90
2022-10-15T03:41:09.937Z,13.90
2022-10-15T03:43:41.871Z,13.90
2022-10-15T03:46:11.105Z,13.90
2022-10-15T03:48:39.259Z,13.90
2022-10-15T03:51:07.401Z,14.00
2022-10-15T03:53:35.390Z,13.90
2022-10-15T03:56:05.506Z,14.00
2022-10-15T03:58:34.933Z,14.00
2022-10-15T04:01:03.295Z,14.00
2022-10-15T04:03:31.413Z,14.00
2022-10-15T04:06:02.653Z,14.00
2022-10-15T04:08:31.446Z,14.00
2022-10-15T04:11:00.291Z,14.00
2022-10-15T04:13:29.199Z,14.00
2022-10-15T04:15:58.759Z,14.00
2022-10-15T04:18:26.906Z,14.00
2022-10-15T04:20:54.987Z,14.00
2022-10-15T04:23:22.989Z,14.10
2022-10-15T04:25:51.017Z,14.00
2022-10-15T04:28:19.216Z,14.00
2022-10-15T04:30:47.398Z,14.00
2022-10-15T04:33:16.876Z,14.00
2022-10-15T04:35:44.931Z,14.00
2022-10-15T04:38:12.953Z,14.00
2022-10-15T04:40:41.197Z,14.10
2022-10-15T04:43:09.243Z,14.10
2022-10-15T04:45:49.361Z,14.10
2022-10-15T04:48:21.898Z,14.10
2022-10-15T04:50:49.927Z,14.10
2022-10-15T04:53:17.992Z,14.10
2022-10-15T04:55:45.985Z,14.10
2022-10-15T04:58:13.985Z,14.10
2022-10-15T05:00:42.274Z,14.10
2022-10-15T05:03:10.237Z,14.10
2022-10-15T05:05:39.719Z,14.10
2022-10-15T05:08:07.770Z,14.10
2022-10-15T05:10:35.831Z,14.10
2022-10-15T05:13:04.301Z,14.20
2022-10-15T05:15:32.475Z,14.10
2022-10-15T05:18:00.484Z,14.10
2022-10-15T05:20:28.452Z,14.10
2022-10-15T05:22:57.825Z,14.10
2022-10-15T05:25:25.881Z,14.10
2022-10-15T05:27:53.841Z,14.10
2022-10-15T05:30:21.838Z,14.10
2022-10-15T05:32:53.334Z,14.10
2022-10-15T05:35:21.558Z,14.10
2022-10-15T05:37:50.692Z,14.10
2022-10-15T05:40:22.015Z,14.10
2022-10-15T05:45:22.115Z,14.00
2022-10-15T05:47:50.114Z,14.00
2022-10-15T05:50:18.135Z,14.00
2022-10-15T05:52:46.144Z,14.10
2022-10-15T05:55:14.171Z,14.10
2022-10-15T05:57:43.593Z,14.10
2022-10-15T06:00:12.784Z,14.10
2022-10-15T06:02:41.003Z,14.00
2022-10-15T06:05:09.410Z,14.10
2022-10-15T06:07:38.153Z,14.10
2022-10-15T06:10:06.790Z,14.10
2022-10-15T06:12:34.843Z,14.10
2022-10-15T06:15:04.459Z,14.00
2022-10-15T06:17:32.408Z,14.00
2022-10-15T06:20:00.425Z,14.00
2022-10-15T06:22:31.241Z,14.00
2022-10-15T06:24:59.277Z,14.00
2022-10-15T06:27:27.352Z,14.00
2022-10-15T06:29:55.267Z,14.00
2022-10-15T06:32:24.595Z,14.00
2022-10-15T06:34:52.558Z,14.00
2022-10-15T06:37:20.904Z,14.10
2022-10-15T06:39:49.049Z,14.00
2022-10-15T06:42:17.132Z,14.00
2022-10-15T06:44:45.116Z,14.10
2022-10-15T06:47:13.102Z,14.10
2022-10-15T06:49:42.532Z,14.10
2022-10-15T06:52:10.411Z,14.10
2022-10-15T06:54:38.678Z,14.20
2022-10-15T06:57:06.577Z,14.10
2022-10-15T06:59:37.141Z,14.10
2022-10-15T07:02:09.772Z,14.10
2022-10-15T07:04:37.677Z,14.10
2022-10-15T07:07:07.026Z,14.10
2022-10-15T07:09:35.554Z,14.10
2022-10-15T07:12:03.902Z,14.10
2022-10-15T07:14:31.882Z,14.20
2022-10-15T07:16:59.924Z,14.20
2022-10-15T07:19:28.364Z,14.20
2022-10-15T07:21:56.325Z,14.20
2022-10-15T07:24:25.644Z,14.20
2022-10-15T07:26:53.619Z,14.20
2022-10-15T07:29:21.608Z,14.20
2022-10-15T07:31:49.649Z,14.20
2022-10-15T07:34:17.828Z,14.20
2022-10-15T07:36:45.828Z,14.30
2022-10-15T07:39:14.058Z,14.30
2022-10-15T07:41:43.370Z,14.40
2022-10-15T07:44:11.334Z,14.50
2022-10-15T07:46:39.330Z,14.50
2022-10-15T07:49:07.407Z,14.60
2022-10-15T07:51:35.486Z,14.60
2022-10-15T07:54:03.467Z,14.70
2022-10-15T07:56:31.496Z,14.70
2022-10-15T07:59:01.035Z,14.80
2022-10-15T08:01:29.060Z,14.80
2022-10-15T08:03:57.056Z,14.80
2022-10-15T08:06:25.097Z,14.80
2022-10-15T08:08:53.066Z,14.80
2022-10-15T08:11:21.173Z,14.90
2022-10-15T08:13:49.390Z,14.90
2022-10-15T08:16:20.234Z,15.00
2022-10-15T08:18:48.266Z,15.00
2022-10-15T08:21:16.478Z,14.90
2022-10-15T08:23:44.460Z,14.90
2022-10-15T08:26:12.424Z,15.00
2022-10-15T08:28:40.512Z,15.10
2022-10-15T08:31:08.600Z,15.10
2022-10-15T08:33:39.311Z,15.10
2022-10-15T08:36:08.638Z,15.20
2022-10-15T08:38:36.686Z,15.30
2022-10-15T08:41:12.699Z,15.30
2022-10-15T08:43:43.298Z,15.30
2022-10-15T08:48:48.553Z,15.40
2022-10-15T08:51:21.115Z,15.40
2022-10-15T08:53:53.382Z,15.50
2022-10-15T08:56:26.083Z,15.60
2022-10-15T08:59:03.082Z,15.60
2022-10-15T09:01:38.105Z,15.60
2022-10-15T09:07:02.106Z,15.70
2022-10-15T09:09:39.034Z,15.70
2022-10-15T09:12:16.172Z,15.70
2022-10-15T09:14:47.432Z,15.80
2022-10-15T09:17:21.256Z,15.80
2022-10-15T09:19:53.875Z,15.80
2022-10-15T09:22:25.560Z,15.80
2022-10-15T09:24:53.906Z,15.90
2022-10-15T09:27:29.330Z,15.90
2022-10-15T09:30:06.098Z,15.90
2022-10-15T09:32:39.228Z,16.00
2022-10-15T09:35:16.292Z,16.00
2022-10-15T09:37:53.935Z,16.00
2022-10-15T09:40:51.048Z,16.00
2022-10-15T09:43:27.654Z,16.10
2022-10-15T09:45:55.831Z,16.10
2022-10-15T09:48:26.778Z,16.10
2022-10-15T09:51:00.502Z,16.20
2022-10-15T09:53:46.398Z,16.20
2022-10-15T09:56:19.033Z,16.20
2022-10-15T09:58:53.220Z,16.30
2022-10-15T10:01:23.293Z,16.20
2022-10-15T10:03:55.009Z,16.30
2022-10-15T10:06:25.382Z,16.40
2022-10-15T10:08:55.880Z,16.40
2022-10-15T10:11:25.441Z,16.40
2022-10-15T10:13:56.105Z,16.40
2022-10-15T10:16:24.963Z,16.40
2022-10-15T10:19:06.053Z,16.50
2022-10-15T10:21:39.344Z,16.50
2022-10-15T10:24:30.624Z,16.50
2022-10-15T10:26:58.817Z,16.60
2022-10-15T10:29:35.556Z,16.60
2022-10-15T10:32:12.298Z,16.60
2022-10-15T10:34:46.569Z,16.70
2022-10-15T10:37:18.253Z,16.70
2022-10-15T10:39:47.287Z,16.80
2022-10-15T10:42:27.547Z,16.80
2022-10-15T10:44:55.809Z,16.90
2022-10-15T10:47:24.983Z,16.90
2022-10-15T10:49:54.340Z,16.90
2022-10-15T10:52:26.888Z,16.90
2022-10-15T10:55:01.031Z,16.90
2022-10-15T10:57:41.062Z,16.80
2022-10-15T11:00:13.287Z,16.80
2022-10-15T11:02:43.885Z,16.80
2022-10-15T11:05:12.368Z,16.80
2022-10-15T11:07:51.011Z,16.80
2022-10-15T11:10:26.186Z,16.80
2022-10-15T11:13:05.619Z,16.80
2022-10-15T11:15:43.563Z,16.80
2022-10-15T11:18:32.300Z,16.80
2022-10-15T11:21:09.313Z,16.70
2022-10-15T11:23:54.709Z,16.70
2022-10-15T11:26:51.988Z,16.60
2022-10-15T11:29:35.179Z,16.60
2022-10-15T11:32:26.010Z,16.60
2022-10-15T11:35:40.891Z,16.70
2022-10-15T11:38:20.411Z,16.80
2022-10-15T11:41:02.315Z,16.90
2022-10-15T11:43:44.561Z,17.10
2022-10-15T11:46:19.944Z,17.20
2022-10-15T11:49:02.465Z,17.30
2022-10-15T11:51:35.180Z,17.40
2022-10-15T11:54:21.684Z,17.40
2022-10-15T11:56:57.363Z,17.40
2022-10-15T11:59:35.306Z,17.50
2022-10-15T12:02:10.582Z,17.40
2022-10-15T12:04:43.297Z,17.40
2022-10-15T12:07:17.368Z,17.40
2022-10-15T12:09:53.083Z,17.40
2022-10-15T12:12:32.870Z,17.30
2022-10-15T12:15:24.344Z,17.30
2022-10-15T12:17:56.805Z,17.20
2022-10-15T12:20:26.666Z,17.30
2022-10-15T12:22:57.718Z,17.40
2022-10-15T12:25:46.885Z,17.60
2022-10-15T12:28:19.507Z,17.80
2022-10-15T12:31:01.307Z,17.90
2022-10-15T12:33:39.494Z,17.80
2022-10-15T12:36:27.991Z,17.90
2022-10-15T12:39:00.657Z,17.90
2022-10-15T12:41:44.427Z,17.90
2022-10-15T12:44:23.561Z,17.80
2022-10-15T12:46:51.891Z,17.80
2022-10-15T12:49:47.496Z,17.70
2022-10-15T12:52:54.736Z,17.70
2022-10-15T12:55:26.484Z,17.80
2022-10-15T12:58:00.569Z,17.90
2022-10-15T13:00:36.207Z,18.00
2022-10-15T13:03:21.739Z,18.10
2022-10-15T13:05:53.084Z,18.20
2022-10-15T13:08:25.529Z,18.20
2022-10-15T13:10:55.794Z,18.20
2022-10-15T13:13:26.709Z,18.10
2022-10-15T13:15:59.615Z,18.10
2022-10-15T13:18:29.797Z,18.00
2022-10-15T13:20:58.826Z,17.90
2022-10-15T13:23:31.102Z,17.90
2022-10-15T13:26:13.679Z,17.80
2022-10-15T13:28:43.274Z,17.70
2022-10-15T13:31:21.698Z,17.70
2022-10-15T13:33:53.713Z,17.60
2022-10-15T13:36:24.846Z,17.60
2022-10-15T13:38:55.533Z,17.50
2022-10-15T13:41:29.764Z,17.40
2022-10-15T13:44:00.931Z,17.50
2022-10-15T13:46:32.761Z,17.40
2022-10-15T13:49:02.718Z,17.40
2022-10-15T13:51:35.319Z,17.50
2022-10-15T13:54:08.652Z,17.50
2022-10-15T13:56:36.996Z,17.50
2022-10-15T13:59:05.813Z,17.50
2022-10-15T14:01:36.868Z,17.50
2022-10-15T14:04:05.209Z,17.60
2022-10-15T14:06:35.476Z,17.60
2022-10-15T14:09:15.885Z,17.70
2022-10-15T14:11:43.850Z,17.70
2022-10-15T14:14:30.702Z,17.80
2022-10-15T14:17:01.672Z,17.80
2022-10-15T14:19:31.269Z,17.70
2022-10-15T14:22:00.738Z,17.70
2022-10-15T14:24:40.352Z,17.60
2022-10-15T14:27:13.841Z,17.60
2022-10-15T14:29:44.310Z,17.60
2022-10-15T14:32:26.084Z,17.60
2022-10-15T14:34:55.475Z,17.60
2022-10-15T14:37:41.705Z,17.50
2022-10-15T14:40:21.609Z,17.40
2022-10-15T14:43:01.716Z,17.50
2022-10-15T14:45:31.698Z,17.40
2022-10-15T14:48:03.737Z,17.30
2022-10-15T14:50:33.272Z,17.20
2022-10-15T14:53:06.370Z,17.10
2022-10-15T14:55:38.759Z,17.10
2022-10-15T14:58:10.199Z,17.00
2022-10-15T15:00:43.389Z,17.00
2022-10-15T15:03:17.081Z,16.90
2022-10-15T15:05:47.812Z,16.90
2022-10-15T15:08:15.935Z,16.80
2022-10-15T15:10:44.953Z,16.80
2022-10-15T15:13:16.589Z,16.70
2022-10-15T15:15:44.724Z,16.70
2022-10-15T15:18:14.552Z,16.70
2022-10-15T15:20:44.615Z,16.80
2022-10-15T15:23:16.891Z,16.70
2022-10-15T15:25:44.868Z,16.70
2022-10-15T15:28:14.853Z,16.70
2022-10-15T15:30:44.579Z,16.70
2022-10-15T15:33:14.995Z,16.70
2022-10-15T15:35:50.686Z,16.70
2022-10-15T15:38:18.759Z,16.70
2022-10-15T15:40:46.757Z,16.70
2022-10-15T15:43:16.930Z,16.60
2022-10-15T15:45:47.890Z,16.60
2022-10-15T15:48:17.655Z,16.50
2022-10-15T15:50:47.682Z,16.50
2022-10-15T15:53:15.636Z,16.50
2022-10-15T15:55:43.681Z,16.40
2022-10-15T15:58:12.905Z,16.40
2022-10-15T16:00:40.752Z,16.40
2022-10-15T16:03:09.837Z,16.30
2022-10-15T16:05:40.943Z,16.30
2022-10-15T16:08:10.386Z,16.30
2022-10-15T16:10:38.484Z,16.20
2022-10-15T16:13:06.549Z,16.20
2022-10-15T16:15:34.713Z,16.20
2022-10-15T16:18:05.821Z,16.20
2022-10-15T16:20:35.836Z,16.20
2022-10-15T16:23:05.094Z,16.10
2022-10-15T16:25:32.981Z,16.10
2022-10-15T16:28:01.854Z,16.10
2022-10-15T16:30:30.127Z,16.10
2022-10-15T16:32:58.221Z,16.10
2022-10-15T16:35:26.235Z,16.10
2022-10-15T16:37:56.193Z,16.00
2022-10-15T16:40:25.616Z,16.00
2022-10-15T16:42:53.574Z,16.00
2022-10-15T16:45:21.476Z,16.00
2022-10-15T16:47:49.788Z,16.00
2022-10-15T16:50:18.039Z,16.00
2022-10-15T16:52:46.026Z,15.90
2022-10-15T16:55:14.024Z,15.90
2022-10-15T16:57:43.884Z,15.90
2022-10-15T17:00:12.948Z,15.90
2022-10-15T17:02:40.830Z,15.90
2022-10-15T17:05:09.696Z,15.90
2022-10-15T17:07:37.631Z,15.90
2022-10-15T17:10:09.616Z,15.90
2022-10-15T17:12:40.433Z,15.90
2022-10-15T17:15:10.857Z,15.90
2022-10-15T17:17:39.251Z,15.90
2022-10-15T17:20:09.114Z,15.90
2022-10-15T17:22:37.607Z,15.90
2022-10-15T17:25:06.233Z,15.90
2022-10-15T17:27:35.647Z,15.90
2022-10-15T17:30:03.762Z,15.90
2022-10-15T17:32:33.233Z,15.90
2022-10-15T17:35:04.075Z,15.90
2022-10-15T17:37:32.441Z,15.80
2022-10-15T17:40:00.643Z,15.80
2022-10-15T17:42:28.938Z,15.90
2022-10-15T17:44:56.870Z,15.90
2022-10-15T17:47:24.996Z,15.90
2022-10-15T17:49:54.491Z,15.90
2022-10-15T17:52:22.613Z,15.90
2022-10-15T17:54:51.603Z,15.80
2022-10-15T17:57:19.604Z,15.80
2022-10-15T17:59:50.369Z,15.80
2022-10-15T18:02:19.326Z,15.90
2022-10-15T18:04:47.545Z,15.80
2022-10-15T18:07:19.743Z,15.80
2022-10-15T18:09:47.728Z,15.80
2022-10-15T18:12:21.681Z,15.80
2022-10-15T18:14:49.667Z,15.80
2022-10-15T18:17:18.753Z,15.80
2022-10-15T18:19:46.904Z,15.80
2022-10-15T18:22:16.302Z,15.80
2022-10-15T18:24:44.439Z,15.80
2022-10-15T18:27:12.475Z,15.80
2022-10-15T18:29:40.461Z,15.80
2022-10-15T18:32:08.827Z,15.70
2022-10-15T18:34:36.845Z,15.70
2022-10-15T18:37:04.932Z,15.70
2022-10-15T18:39:34.490Z,15.70
2022-10-15T18:42:02.461Z,15.70
2022-10-15T18:44:30.391Z,15.70
2022-10-15T18:46:58.389Z,15.70
2022-10-15T18:49:26.514Z,15.70
2022-10-15T18:51:55.375Z,15.70
2022-10-15T18:54:23.662Z,15.70
2022-10-15T18:56:53.641Z,15.70
2022-10-15T18:59:21.715Z,15.60
2022-10-15T19:01:50.937Z,15.60
2022-10-15T19:04:37.948Z,15.60
2022-10-15T19:07:05.968Z,15.60
2022-10-15T19:09:34.671Z,15.60
2022-10-15T19:12:04.498Z,15.60
2022-10-15T19:14:32.554Z,15.60
2022-10-15T19:17:00.834Z,15.60
2022-10-15T19:19:30.684Z,15.60
2022-10-15T19:21:58.849Z,15.60
2022-10-15T19:24:27.119Z,15.60
2022-10-15T19:26:55.246Z,15.60
2022-10-15T19:29:24.803Z,15.60
2022-10-15T19:31:53.862Z,15.60
2022-10-15T19:34:22.693Z,15.60
2022-10-15T19:36:51.241Z,15.60
2022-10-15T19:39:22.990Z,15.60
2022-10-15T19:41:52.207Z,15.60
2022-10-15T19:44:24.942Z,15.60
2022-10-15T19:46:55.761Z,15.50
2022-10-15T19:49:24.775Z,15.50
2022-10-15T19:51:52.995Z,15.50
2022-10-15T19:54:21.248Z,15.50
2022-10-15T19:56:49.401Z,15.40
2022-10-15T19:59:18.227Z,15.40
2022-10-15T20:01:46.406Z,15.40
2022-10-15T20:04:15.808Z,15.40
2022-10-15T20:06:43.797Z,15.40
2022-10-15T20:09:11.717Z,15.40
2022-10-15T20:11:39.845Z,15.40
2022-10-15T20:14:08.934Z,15.30
2022-10-15T20:16:37.022Z,15.30
2022-10-15T20:19:05.941Z,15.30
2022-10-15T20:21:35.449Z,15.30
2022-10-15T20:24:04.648Z,15.30
2022-10-15T20:26:33.228Z,15.30
2022-10-15T20:29:01.269Z,15.20
2022-10-15T20:31:32.798Z,15.20
2022-10-15T20:34:01.855Z,15.20
2022-10-15T20:36:30.628Z,15.20
2022-10-15T20:39:01.677Z,15.20
2022-10-15T20:41:30.155Z,15.10
2022-10-15T20:43:58.609Z,15.20
2022-10-15T20:46:30.474Z,15.20
2022-10-15T20:49:07.818Z,15.20
2022-10-15T20:51:37.935Z,15.20
2022-10-15T20:54:07.480Z,15.20
2022-10-15T20:56:35.457Z,15.20
2022-10-15T20:59:04.255Z,15.20
2022-10-15T21:01:32.338Z,15.20
2022-10-15T21:04:00.410Z,15.20
2022-10-15T21:06:28.429Z,15.20
2022-10-15T21:08:56.386Z,15.20
2022-10-15T21:11:25.732Z,15.10
2022-10-15T21:13:53.761Z,15.10
2022-10-15T21:16:25.884Z,15.10
2022-10-15T21:18:56.450Z,15.10
2022-10-15T21:21:24.656Z,15.10
2022-10-15T21:23:52.675Z,15.00
2022-10-15T21:26:21.877Z,15.10
2022-10-15T21:28:55.482Z,15.00
2022-10-15T21:31:23.824Z,15.00
2022-10-15T21:33:52.555Z,15.00
2022-10-15T21:36:22.633Z,15.00
2022-10-15T21:38:54.207Z,15.00
2022-10-15T21:41:22.609Z,15.00
2022-10-15T21:43:52.245Z,15.00
2022-10-15T21:46:20.412Z,15.00
2022-10-15T21:48:48.456Z,15.00
2022-10-15T21:51:18.019Z,14.90
2022-10-15T21:53:46.170Z,14.90
2022-10-15T21:56:14.553Z,14.90
2022-10-15T21:58:43.027Z,14.90
2022-10-15T22:01:15.923Z,14.90
2022-10-15T22:03:46.844Z,14.90
2022-10-15T22:06:15.488Z,14.90
2022-10-15T22:08:43.957Z,14.90
2022-10-15T22:11:13.970Z,14.90
2022-10-15T22:13:42.837Z,14.80
2022-10-15T22:16:12.626Z,14.90
2022-10-15T22:18:41.461Z,14.90
2022-10-15T22:21:15.034Z,14.80
2022-10-15T22:23:43.885Z,14.80
2022-10-15T22:26:12.388Z,14.80
2022-10-15T22:28:40.549Z,14.80
2022-10-15T22:31:11.282Z,14.80
2022-10-15T22:33:41.698Z,14.80
2022-10-15T22:36:14.589Z,14.80
2022-10-15T22:38:43.525Z,14.80
2022-10-15T22:41:11.967Z,14.80
2022-10-15T22:43:40.212Z,14.70
2022-10-15T22:46:08.791Z,14.70
2022-10-15T22:48:38.519Z,14.70
2022-10-15T22:51:11.570Z,14.70
2022-10-15T22:53:39.752Z,14.70
2022-10-15T22:56:09.833Z,14.70
2022-10-15T22:58:37.925Z,14.70
2022-10-15T23:01:10.809Z,14.70
2022-10-15T23:03:39.896Z,14.70
2022-10-15T23:06:09.362Z,14.70
2022-10-15T23:08:37.736Z,14.70
2022-10-15T23:11:09.457Z,14.70
2022-10-15T23:13:38.727Z,14.70
2022-10-15T23:16:08.367Z,14.70
2022-10-15T23:18:36.495Z,14.70
2022-10-15T23:21:06.140Z,14.70
2022-10-15T23:23:35.357Z,14.60
2022-10-15T23:26:03.356Z,14.60
2022-10-15T23:28:31.388Z,14.60
2022-10-15T23:30:59.526Z,14.60
2022-10-15T23:33:27.484Z,14.60
2022-10-15T23:36:00.435Z,14.60
2022-10-15T23:38:29.095Z,14.60
2022-10-15T23:41:03.086Z,14.70
2022-10-15T23:43:31.589Z,14.70
2022-10-15T23:46:00.178Z,14.60
2022-10-15T23:48:28.628Z,14.60
2022-10-15T23:51:16.541Z,14.60
2022-10-15T23:56:14.205Z,14.60
2022-10-15T23:58:42.819Z,14.60
